Time;durP1;ratioP1;P1;durP2;ratioP2;P2;SDS_P1;SDS_P2;PMS_P1;PMS_P2;Temp;Humidity;BMP_temperature;BMP_pressure;BME280_temperature;BME280_humidity;BME280_pressure;Samples;Min_cycle;Max_cycle;Signal;HPM_P1;HPM_P2
2023/04/05 09:05:16;;;;;;;;;42.25;34.75;;;;;;;;4884589;28;50390;-78
2023/04/05 09:07:42;;;;;;;;;36.00;35.00;;;;;;;;5065156;28;49791;-78
2023/04/05 09:10:07;;;;;;;;;37.25;36.75;;;;;;;;5067731;28;49892;-73
2023/04/05 09:12:34;;;;;;;;;37.00;34.25;;;;;;;;5044163;28;50276;-74
2023/04/05 09:15:00;;;;;;;;;32.25;29.50;;;;;;;;5046377;28;51414;-73
2023/04/05 09:17:26;;;;;;;;;36.75;30.25;;;;;;;;5069845;28;49652;-73
2023/04/05 09:19:51;;;;;;;;;33.75;32.75;;;;;;;;5070174;28;49722;-74
2023/04/05 09:22:17;;;;;;;;;30.75;27.50;;;;;;;;5067292;28;49699;-73
2023/04/05 09:24:43;;;;;;;;;33.75;31.75;;;;;;;;5063517;28;49886;-73
2023/04/05 09:27:12;;;;;;;;;30.00;24.25;;;;;;;;5061819;28;49856;-74
2023/04/05 09:29:43;;;;;;;;;35.00;30.50;;;;;;;;5065530;28;49791;-74
2023/04/05 09:32:09;;;;;;;;;32.50;31.25;;;;;;;;5064032;28;49829;-74
2023/04/05 09:34:36;;;;;;;;;32.50;31.00;;;;;;;;5042132;28;51502;-74
2023/04/05 09:37:01;;;;;;;;;30.75;26.50;;;;;;;;5060886;28;50274;-75
2023/04/05 09:39:27;;;;;;;;;32.25;28.75;;;;;;;;5063486;28;49747;-73
2023/04/05 09:42:05;;;;;;;;;35.00;29.75;;;;;;;;5060256;27;49966;-75
2023/04/05 09:44:50;;;;;;;;;38.00;31.50;;;;;;;;5062941;28;49700;-74
2023/04/05 09:47:18;;;;;;;;;30.50;28.75;;;;;;;;5069502;28;49814;-75
2023/04/05 09:49:44;;;;;;;;;32.00;29.25;;;;;;;;5052250;28;49788;-74
2023/04/05 09:52:21;;;;;;;;;33.00;29.00;;;;;;;;5064789;28;49946;-75
2023/04/05 09:54:46;;;;;;;;;28.00;24.75;;;;;;;;5068670;28;50341;-75
2023/04/05 09:57:12;;;;;;;;;17.50;17.25;;;;;;;;5069921;28;49675;-75
2023/04/05 09:59:40;;;;;;;;;34.50;29.25;;;;;;;;5065736;28;49861;-74
2023/04/05 10:02:05;;;;;;;;;24.25;21.75;;;;;;;;5060592;28;49804;-74
2023/04/05 10:04:40;;;;;;;;;30.75;28.50;;;;;;;;5068230;28;49784;-75
2023/04/05 10:07:06;;;;;;;;;30.00;27.25;;;;;;;;5067764;28;50178;-75
2023/04/05 10:09:31;;;;;;;;;29.25;25.75;;;;;;;;5070044;28;50240;-74
2023/04/05 10:11:57;;;;;;;;;26.00;21.50;;;;;;;;5070127;28;49753;-74
2023/04/05 10:14:22;;;;;;;;;25.50;20.25;;;;;;;;5067024;28;50925;-74
2023/04/05 10:16:47;;;;;;;;;33.50;24.75;;;;;;;;5068269;28;50018;-73
2023/04/05 10:19:18;;;;;;;;;28.40;26.80;;;;;;;;5069945;28;50170;-78
2023/04/05 10:21:44;;;;;;;;;24.25;21.50;;;;;;;;5047807;28;49891;-69
2023/04/05 10:24:17;;;;;;;;;24.00;22.25;;;;;;;;5055882;28;50404;-69
2023/04/05 10:26:58;;;;;;;;;29.00;23.00;;;;;;;;5068276;28;50047;-69
2023/04/05 10:29:31;;;;;;;;;24.50;21.25;;;;;;;;5065749;28;49862;-68
2023/04/05 10:32:10;;;;;;;;;25.50;24.25;;;;;;;;5069828;28;49728;-68
2023/04/05 10:34:41;;;;;;;;;28.25;26.75;;;;;;;;5064962;28;50283;-71
2023/04/05 10:37:09;;;;;;;;;23.75;20.00;;;;;;;;5069087;28;50057;-72
2023/04/05 10:39:45;;;;;;;;;25.50;24.25;;;;;;;;5049124;28;50288;-75
2023/04/05 10:42:19;;;;;;;;;23.25;18.50;;;;;;;;5069114;28;50056;-71
2023/04/05 10:44:45;;;;;;;;;21.00;21.00;;;;;;;;5068862;28;50591;-74
2023/04/05 10:47:12;;;;;;;;;31.00;21.00;;;;;;;;5068806;28;49854;-75
2023/04/05 10:49:38;;;;;;;;;20.25;16.75;;;;;;;;5069162;28;50053;-76
2023/04/05 10:52:03;;;;;;;;;27.75;21.50;;;;;;;;5067121;28;49738;-71
2023/04/05 10:54:32;;;;;;;;;27.25;21.25;;;;;;;;5067764;28;49869;-74
2023/04/05 10:56:57;;;;;;;;;26.00;19.50;;;;;;;;5064345;28;49712;-74
2023/04/05 10:59:25;;;;;;;;;28.25;22.25;;;;;;;;5067615;28;49679;-70
2023/04/05 11:01:51;;;;;;;;;16.50;15.50;;;;;;;;5060148;28;49813;-70
2023/04/05 11:04:17;;;;;;;;;22.25;16.75;;;;;;;;5042325;28;51603;-72
2023/04/05 11:06:46;;;;;;;;;16.00;15.50;;;;;;;;5046159;28;49780;-72
2023/04/05 11:09:16;;;;;;;;;24.50;21.25;;;;;;;;5044470;28;49851;-70
2023/04/05 11:11:42;;;;;;;;;21.00;19.00;;;;;;;;5063605;28;49918;-75
2023/04/05 11:14:18;;;;;;;;;28.00;22.00;;;;;;;;5061814;28;50173;-75
2023/04/05 11:16:45;;;;;;;;;20.00;19.50;;;;;;;;5060412;28;49798;-77
2023/04/05 11:19:10;;;;;;;;;22.75;22.75;;;;;;;;5060985;28;50180;-75
2023/04/05 11:21:35;;;;;;;;;21.50;20.25;;;;;;;;5069182;28;49794;-75
2023/04/05 11:24:05;;;;;;;;;22.25;19.00;;;;;;;;5068310;28;50850;-75
2023/04/05 11:26:31;;;;;;;;;19.50;16.75;;;;;;;;5064634;28;50194;-73
2023/04/05 11:28:57;;;;;;;;;22.00;20.75;;;;;;;;5068836;28;49698;-76
2023/04/05 11:31:25;;;;;;;;;16.25;16.00;;;;;;;;5069337;28;49940;-77
2023/04/05 11:33:55;;;;;;;;;20.75;19.50;;;;;;;;5068007;28;50032;-75
2023/04/05 11:36:30;;;;;;;;;18.50;17.25;;;;;;;;5064034;28;50105;-74
2023/04/05 11:39:14;;;;;;;;;22.75;21.25;;;;;;;;5068488;28;49848;-73
2023/04/05 11:41:39;;;;;;;;;20.25;19.50;;;;;;;;5060647;28;49751;-73
2023/04/05 11:44:12;;;;;;;;;21.00;18.50;;;;;;;;5068211;28;50410;-72
2023/04/05 11:46:37;;;;;;;;;19.75;19.00;;;;;;;;5067215;28;49637;-72
2023/04/05 11:49:03;;;;;;;;;23.00;18.00;;;;;;;;5067983;28;49664;-72
2023/04/05 11:51:28;;;;;;;;;20.75;17.75;;;;;;;;5068612;28;49635;-72
2023/04/05 11:53:53;;;;;;;;;18.75;15.25;;;;;;;;5068048;28;50641;-72
2023/04/05 11:56:20;;;;;;;;;19.00;17.75;;;;;;;;5063242;28;49972;-71
2023/04/05 11:58:45;;;;;;;;;25.50;21.50;;;;;;;;5061609;28;49759;-71
2023/04/05 12:01:10;;;;;;;;;22.25;19.00;;;;;;;;5061325;28;49775;-71
2023/04/05 12:03:36;;;;;;;;;19.50;17.75;;;;;;;;5059790;28;51802;-72
2023/04/05 12:06:02;;;;;;;;;21.00;18.50;;;;;;;;5063947;28;50184;-71
2023/04/05 12:08:41;;;;;;;;;21.50;19.50;;;;;;;;5062098;28;49814;-72
2023/04/05 12:11:07;;;;;;;;;23.25;20.25;;;;;;;;5062195;28;49857;-72
2023/04/05 12:13:34;;;;;;;;;22.25;19.75;;;;;;;;5061932;28;50623;-72
2023/04/05 12:16:00;;;;;;;;;24.75;23.00;;;;;;;;5061904;28;50179;-72
2023/04/05 12:18:26;;;;;;;;;27.75;24.00;;;;;;;;5060226;28;50352;-72
2023/04/05 12:20:52;;;;;;;;;22.00;18.50;;;;;;;;5062785;28;50134;-73
2023/04/05 12:23:17;;;;;;;;;20.00;18.75;;;;;;;;5059103;28;50784;-72
2023/04/05 12:25:49;;;;;;;;;16.50;15.25;;;;;;;;5061937;28;49831;-73
2023/04/05 12:28:14;;;;;;;;;17.00;15.75;;;;;;;;5062450;28;50040;-72
2023/04/05 12:30:49;;;;;;;;;27.25;18.75;;;;;;;;5063026;28;50043;-72
2023/04/05 12:33:15;;;;;;;;;18.25;18.25;;;;;;;;5058573;28;50227;-74
2023/04/05 12:35:40;;;;;;;;;17.50;17.00;;;;;;;;5060867;28;50581;-72
2023/04/05 12:38:06;;;;;;;;;17.50;15.75;;;;;;;;5059800;28;50340;-73
2023/04/05 12:40:35;;;;;;;;;17.75;15.00;;;;;;;;5067094;28;49975;-73
2023/04/05 12:43:02;;;;;;;;;18.75;15.75;;;;;;;;5065808;28;50941;-73
2023/04/05 12:45:27;;;;;;;;;18.00;17.50;;;;;;;;5045938;28;49831;-71
2023/04/05 12:47:57;;;;;;;;;12.50;12.00;;;;;;;;5066220;28;50744;-72
2023/04/05 12:50:29;;;;;;;;;16.50;15.75;;;;;;;;5066192;28;50354;-72
2023/04/05 12:52:55;;;;;;;;;14.75;12.50;;;;;;;;5048424;28;51236;-72
2023/04/05 12:55:20;;;;;;;;;18.25;17.25;;;;;;;;5068832;28;50197;-73
2023/04/05 12:57:58;;;;;;;;;20.25;17.00;;;;;;;;5070259;28;49858;-73
2023/04/05 13:00:25;;;;;;;;;17.00;13.00;;;;;;;;5067383;28;50657;-75
2023/04/05 13:02:52;;;;;;;;;12.00;11.25;;;;;;;;5065078;28;50972;-76
2023/04/05 13:05:18;;;;;;;;;13.50;12.00;;;;;;;;5070480;28;50087;-75
2023/04/05 13:07:43;;;;;;;;;13.00;13.00;;;;;;;;5071179;28;49776;-76
2023/04/05 13:10:08;;;;;;;;;13.00;12.50;;;;;;;;5070823;28;49668;-74
2023/04/05 13:12:34;;;;;;;;;18.25;17.50;;;;;;;;5070940;28;49938;-74
2023/04/05 13:14:59;;;;;;;;;20.25;18.75;;;;;;;;5070364;28;49857;-74
2023/04/05 13:17:24;;;;;;;;;12.00;11.75;;;;;;;;5066023;28;49892;-74
2023/04/05 13:19:49;;;;;;;;;15.00;12.50;;;;;;;;5061190;28;49943;-74
2023/04/05 13:22:15;;;;;;;;;17.50;14.25;;;;;;;;5070589;28;50807;-75
2023/04/05 13:24:40;;;;;;;;;12.75;11.25;;;;;;;;5070631;28;49669;-75
2023/04/05 13:27:05;;;;;;;;;14.00;12.25;;;;;;;;5070812;28;49884;-76
2023/04/05 13:29:30;;;;;;;;;19.50;16.00;;;;;;;;5070821;28;49711;-77
2023/04/05 13:31:55;;;;;;;;;19.50;19.50;;;;;;;;5070547;28;50094;-75
2023/04/05 13:34:20;;;;;;;;;17.25;15.50;;;;;;;;5068724;28;49760;-73
2023/04/05 13:36:47;;;;;;;;;12.75;12.25;;;;;;;;5051485;28;50064;-75
2023/04/05 13:39:13;;;;;;;;;19.00;16.50;;;;;;;;5065156;28;49802;-72
2023/04/05 13:41:38;;;;;;;;;21.25;19.00;;;;;;;;5062677;28;49935;-75
2023/04/05 13:44:03;;;;;;;;;15.50;15.00;;;;;;;;5062576;28;49786;-76
2023/04/05 13:46:28;;;;;;;;;21.25;16.00;;;;;;;;5060196;28;50708;-77
2023/04/05 13:48:53;;;;;;;;;20.75;19.50;;;;;;;;5065613;28;50224;-76
2023/04/05 13:51:19;;;;;;;;;19.00;17.50;;;;;;;;5064629;28;50741;-77
2023/04/05 13:53:44;;;;;;;;;12.25;11.25;;;;;;;;5065167;28;49778;-74
2023/04/05 13:56:09;;;;;;;;;12.00;11.25;;;;;;;;5069469;28;49748;-80
2023/04/05 13:58:34;;;;;;;;;19.00;15.50;;;;;;;;5050713;28;50256;-76
2023/04/05 14:01:00;;;;;;;;;20.50;19.00;;;;;;;;5049644;28;50711;-78
2023/04/05 14:03:25;;;;;;;;;3.50;2.00;;;;;;;;5071236;28;49794;-76
2023/04/05 14:05:50;;;;;;;;;23.75;22.00;;;;;;;;5072223;28;49784;-78
2023/04/05 14:08:16;;;;;;;;;22.25;20.50;;;;;;;;5052606;28;50092;-77
2023/04/05 14:10:41;;;;;;;;;19.50;16.00;;;;;;;;5068580;28;50141;-78
2023/04/05 14:13:06;;;;;;;;;18.50;17.25;;;;;;;;5071115;28;49958;-80
2023/04/05 14:15:32;;;;;;;;;20.50;15.50;;;;;;;;5072235;28;49969;-79
2023/04/05 14:17:58;;;;;;;;;21.00;17.00;;;;;;;;5071399;28;49708;-73
2023/04/05 14:20:23;;;;;;;;;20.75;19.00;;;;;;;;5069450;28;49727;-73
2023/04/05 14:22:48;;;;;;;;;19.00;18.50;;;;;;;;5065104;28;49664;-78
2023/04/05 14:25:13;;;;;;;;;21.75;18.50;;;;;;;;5068977;28;49665;-76
2023/04/05 14:27:41;;;;;;;;;19.50;19.50;;;;;;;;5069941;28;50102;-76
2023/04/05 14:30:06;;;;;;;;;24.50;23.00;;;;;;;;5069358;28;49978;-75
2023/04/05 14:32:31;;;;;;;;;27.00;21.75;;;;;;;;5067560;28;50248;-78
2023/04/05 14:34:57;;;;;;;;;24.75;21.50;;;;;;;;5069298;28;49802;-77
2023/04/05 14:37:22;;;;;;;;;19.25;15.25;;;;;;;;5070188;28;50026;-77
2023/04/05 14:39:47;;;;;;;;;23.00;17.25;;;;;;;;5066670;28;49735;-78
2023/04/05 14:42:12;;;;;;;;;18.25;18.00;;;;;;;;5069943;28;49741;-76
2023/04/05 14:44:37;;;;;;;;;27.00;22.25;;;;;;;;5069653;28;49894;-76
2023/04/05 14:47:03;;;;;;;;;17.50;15.75;;;;;;;;5064175;28;50093;-76
2023/04/05 14:49:28;;;;;;;;;17.50;16.50;;;;;;;;5069826;28;51108;-75
2023/04/05 14:51:53;;;;;;;;;20.50;19.75;;;;;;;;5063111;28;49943;-75
2023/04/05 14:54:18;;;;;;;;;21.00;17.75;;;;;;;;5070167;28;50035;-76
2023/04/05 14:56:43;;;;;;;;;16.50;15.75;;;;;;;;5064682;28;49653;-76
2023/04/05 14:59:09;;;;;;;;;17.25;17.00;;;;;;;;5069006;28;50188;-75
2023/04/05 15:01:34;;;;;;;;;24.50;20.50;;;;;;;;5065693;28;49715;-73
2023/04/05 15:03:59;;;;;;;;;20.50;17.50;;;;;;;;5051561;28;49718;-82
2023/04/05 15:06:25;;;;;;;;;18.00;16.00;;;;;;;;5071558;28;49888;-83
2023/04/05 15:08:50;;;;;;;;;12.75;10.50;;;;;;;;5070123;28;50095;-79
2023/04/05 15:11:15;;;;;;;;;21.00;14.50;;;;;;;;5065151;28;50180;-76
2023/04/05 15:13:40;;;;;;;;;19.25;19.00;;;;;;;;5069229;28;49717;-77
2023/04/05 15:16:06;;;;;;;;;14.75;14.75;;;;;;;;5069178;28;50055;-77
2023/04/05 15:18:31;;;;;;;;;14.25;14.00;;;;;;;;5060620;28;49879;-77
2023/04/05 15:20:56;;;;;;;;;14.00;13.00;;;;;;;;5068577;28;49704;-76
2023/04/05 15:23:21;;;;;;;;;18.25;15.50;;;;;;;;5062408;28;49900;-77
2023/04/05 15:25:46;;;;;;;;;11.75;11.50;;;;;;;;5069494;28;50353;-78
2023/04/05 15:28:12;;;;;;;;;12.75;12.50;;;;;;;;5068875;28;51043;-77
2023/04/05 15:30:37;;;;;;;;;14.25;11.25;;;;;;;;5069383;28;50061;-77
2023/04/05 15:33:02;;;;;;;;;13.50;13.50;;;;;;;;5049325;28;49953;-78
2023/04/05 15:35:28;;;;;;;;;15.75;14.50;;;;;;;;5069107;28;50958;-77
2023/04/05 15:37:53;;;;;;;;;16.50;15.00;;;;;;;;5049626;28;50022;-77
2023/04/05 15:40:18;;;;;;;;;15.75;14.00;;;;;;;;5069173;28;49756;-75
2023/04/05 15:42:43;;;;;;;;;11.25;10.25;;;;;;;;5069077;28;50125;-74
2023/04/05 15:45:09;;;;;;;;;15.50;15.25;;;;;;;;5069019;28;50092;-74
2023/04/05 15:47:34;;;;;;;;;14.00;14.00;;;;;;;;5068581;28;50033;-74
2023/04/05 15:49:59;;;;;;;;;12.25;11.75;;;;;;;;5068381;28;49997;-74
2023/04/05 15:52:25;;;;;;;;;14.25;10.50;;;;;;;;5069208;28;49728;-79
2023/04/05 15:54:50;;;;;;;;;14.50;13.25;;;;;;;;5067694;28;49699;-75
2023/04/05 15:57:15;;;;;;;;;10.50;10.50;;;;;;;;5067633;28;51310;-78
2023/04/05 15:59:40;;;;;;;;;14.75;13.00;;;;;;;;5067204;28;49783;-78
2023/04/05 16:02:06;;;;;;;;;13.50;13.00;;;;;;;;5069338;28;49830;-77
2023/04/05 16:04:31;;;;;;;;;18.75;13.00;;;;;;;;5067825;28;50429;-80
2023/04/05 16:06:56;;;;;;;;;13.50;12.00;;;;;;;;5066632;28;50772;-76
2023/04/05 16:09:21;;;;;;;;;16.00;14.75;;;;;;;;5066977;28;50078;-77
2023/04/05 16:11:47;;;;;;;;;12.25;12.25;;;;;;;;5066703;28;50052;-81
2023/04/05 16:14:12;;;;;;;;;11.00;11.00;;;;;;;;5051706;28;50121;-81
2023/04/05 16:16:37;;;;;;;;;10.25;9.00;;;;;;;;5068550;28;50820;-79
2023/04/05 16:19:03;;;;;;;;;16.50;13.50;;;;;;;;5067377;28;49869;-80
2023/04/05 16:21:28;;;;;;;;;15.00;12.00;;;;;;;;5049629;28;49997;-79
2023/04/05 16:23:55;;;;;;;;;19.25;16.25;;;;;;;;5072212;28;49678;-79
2023/04/05 16:26:21;;;;;;;;;12.50;11.75;;;;;;;;5069435;28;49904;-79
2023/04/05 16:28:46;;;;;;;;;13.00;11.75;;;;;;;;5072234;28;50215;-81
2023/04/05 16:31:12;;;;;;;;;7.00;6.25;;;;;;;;5067863;28;51083;-79
2023/04/05 16:33:37;;;;;;;;;14.25;13.25;;;;;;;;5069841;28;49887;-79
2023/04/05 16:36:02;;;;;;;;;16.00;14.25;;;;;;;;5069467;28;50827;-79
2023/04/05 16:38:28;;;;;;;;;10.50;10.50;;;;;;;;5066986;28;50104;-79
2023/04/05 16:40:53;;;;;;;;;14.75;12.25;;;;;;;;5067928;28;49653;-79
2023/04/05 16:43:18;;;;;;;;;12.00;12.00;;;;;;;;5066628;28;50015;-83
2023/04/05 16:45:43;;;;;;;;;11.50;9.50;;;;;;;;5049258;28;50381;-79
2023/04/05 16:48:09;;;;;;;;;13.25;10.25;;;;;;;;5064970;28;49937;-76
2023/04/05 16:50:34;;;;;;;;;9.00;7.00;;;;;;;;5069075;28;51067;-82
2023/04/05 16:52:59;;;;;;;;;12.00;11.75;;;;;;;;5072332;28;49752;-81
2023/04/05 16:55:25;;;;;;;;;9.50;7.75;;;;;;;;5072216;28;49777;-79
2023/04/05 16:57:52;;;;;;;;;11.50;8.25;;;;;;;;5073610;28;49727;-81
2023/04/05 17:00:18;;;;;;;;;10.75;7.00;;;;;;;;5072664;28;50266;-80
2023/04/05 17:02:43;;;;;;;;;11.00;9.25;;;;;;;;5073470;28;50179;-84
2023/04/05 17:05:08;;;;;;;;;6.75;6.75;;;;;;;;5071871;28;50677;-85
2023/04/05 17:07:33;;;;;;;;;8.25;7.50;;;;;;;;5074161;28;49977;-77
2023/04/05 17:10:00;;;;;;;;;7.25;7.25;;;;;;;;5073053;28;49943;-83
2023/04/05 17:12:26;;;;;;;;;12.75;10.00;;;;;;;;5071353;28;49681;-77
2023/04/05 17:14:51;;;;;;;;;11.50;8.50;;;;;;;;5069104;28;49860;-80
2023/04/05 17:17:16;;;;;;;;;7.50;6.50;;;;;;;;5071128;28;49866;-80
2023/04/05 17:19:42;;;;;;;;;8.00;7.00;;;;;;;;5071086;28;49715;-79
2023/04/05 17:22:07;;;;;;;;;9.25;6.50;;;;;;;;5069199;28;49854;-78
2023/04/05 17:24:33;;;;;;;;;1.00;1.00;;;;;;;;5064353;28;50258;-78
2023/04/05 17:26:58;;;;;;;;;6.50;6.50;;;;;;;;5051674;28;49882;-78
2023/04/05 17:29:23;;;;;;;;;10.50;9.75;;;;;;;;5071218;28;49795;-78
2023/04/05 17:31:49;;;;;;;;;10.75;9.50;;;;;;;;5070204;28;50052;-75
2023/04/05 17:34:15;;;;;;;;;11.25;10.00;;;;;;;;5070831;28;49815;-78
2023/04/05 17:36:41;;;;;;;;;11.00;8.25;;;;;;;;5070959;28;49793;-82
2023/04/05 17:39:06;;;;;;;;;7.25;7.25;;;;;;;;5071450;28;49642;-79
2023/04/05 17:41:31;;;;;;;;;9.75;9.75;;;;;;;;5051200;28;49747;-75
2023/04/05 17:43:57;;;;;;;;;8.00;6.75;;;;;;;;5070842;28;49814;-82
2023/04/05 17:46:22;;;;;;;;;11.25;6.25;;;;;;;;5045522;28;49913;-79
2023/04/05 17:48:48;;;;;;;;;7.50;7.25;;;;;;;;5064769;28;49843;-82
2023/04/05 17:51:14;;;;;;;;;11.00;8.00;;;;;;;;5070086;28;49984;-83
2023/04/05 17:53:39;;;;;;;;;7.50;6.00;;;;;;;;5055094;28;51571;-75
2023/04/05 17:56:04;;;;;;;;;11.50;10.00;;;;;;;;5069418;28;50157;-76
2023/04/05 17:58:31;;;;;;;;;8.75;8.00;;;;;;;;5051903;28;49746;-79
2023/04/05 18:00:56;;;;;;;;;10.75;8.50;;;;;;;;5053752;28;50160;-88
2023/04/05 18:03:22;;;;;;;;;9.50;9.50;;;;;;;;5064472;28;49811;-82
2023/04/05 18:05:50;;;;;;;;;14.00;12.00;;;;;;;;5063163;28;49958;-83
2023/04/05 18:08:15;;;;;;;;;10.75;8.50;;;;;;;;5069963;28;49738;-80
2023/04/05 18:10:40;;;;;;;;;12.75;9.75;;;;;;;;5070151;28;49964;-81
2023/04/05 18:13:05;;;;;;;;;7.75;7.50;;;;;;;;5050240;28;51230;-79
2023/04/05 18:15:31;;;;;;;;;5.00;5.00;;;;;;;;5062472;28;50079;-82
2023/04/05 18:17:57;;;;;;;;;5.50;5.50;;;;;;;;5067902;28;49921;-83
2023/04/05 18:20:23;;;;;;;;;5.75;5.75;;;;;;;;5067392;28;49993;-77
2023/04/05 18:22:48;;;;;;;;;6.00;5.50;;;;;;;;5069801;28;51232;-78
2023/04/05 18:25:13;;;;;;;;;6.00;3.00;;;;;;;;5070934;28;49794;-73
2023/04/05 18:27:41;;;;;;;;;6.25;5.50;;;;;;;;5069983;28;50022;-73
2023/04/05 18:30:06;;;;;;;;;0.50;0.50;;;;;;;;5070163;28;50022;-75
2023/04/05 18:32:31;;;;;;;;;8.75;6.75;;;;;;;;5064076;28;50535;-72
2023/04/05 18:34:57;;;;;;;;;5.00;4.00;;;;;;;;5070045;28;49812;-77
2023/04/05 18:37:22;;;;;;;;;8.75;6.75;;;;;;;;5069507;28;49948;-81
2023/04/05 18:39:47;;;;;;;;;9.00;7.00;;;;;;;;5071019;28;50068;-77
2023/04/05 18:42:13;;;;;;;;;5.00;3.75;;;;;;;;5069951;28;50296;-74
2023/04/05 18:44:38;;;;;;;;;9.25;7.25;;;;;;;;5068858;28;50331;-74
2023/04/05 18:47:03;;;;;;;;;11.00;5.00;;;;;;;;5068773;28;49873;-76
2023/04/05 18:49:29;;;;;;;;;8.75;8.75;;;;;;;;5070031;28;49999;-83
2023/04/05 18:51:54;;;;;;;;;6.25;6.25;;;;;;;;5050620;28;51421;-75
2023/04/05 18:54:19;;;;;;;;;8.50;6.25;;;;;;;;5064654;28;49733;-77
2023/04/05 18:56:45;;;;;;;;;10.50;6.75;;;;;;;;5048307;28;49750;-78
2023/04/05 18:59:10;;;;;;;;;10.50;7.75;;;;;;;;5068429;28;50041;-78
2023/04/05 19:01:35;;;;;;;;;5.00;5.00;;;;;;;;5065669;28;49722;-78
2023/04/05 19:04:01;;;;;;;;;5.25;5.25;;;;;;;;5066347;28;51480;-75
2023/04/05 19:06:26;;;;;;;;;7.00;7.00;;;;;;;;5050255;28;49848;-75
2023/04/05 19:08:52;;;;;;;;;9.50;6.50;;;;;;;;5051185;28;49867;-87
2023/04/05 19:11:19;;;;;;;;;5.50;5.50;;;;;;;;5062564;28;50030;-80
2023/04/05 19:13:45;;;;;;;;;7.50;7.50;;;;;;;;5066693;28;50091;-76
2023/04/05 19:16:10;;;;;;;;;8.75;6.00;;;;;;;;5068125;28;49806;-76
2023/04/05 19:18:35;;;;;;;;;5.00;5.00;;;;;;;;5069599;28;50066;-83
2023/04/05 19:21:00;;;;;;;;;6.25;5.25;;;;;;;;5068458;28;50962;-83
2023/04/05 19:23:26;;;;;;;;;6.25;6.00;;;;;;;;5071831;28;50053;-82
2023/04/05 19:25:55;;;;;;;;;9.25;9.25;;;;;;;;5070285;28;50149;-85
2023/04/05 19:28:20;;;;;;;;;8.75;7.25;;;;;;;;5043554;28;50089;-77
2023/04/05 19:30:45;;;;;;;;;9.00;9.00;;;;;;;;5068652;28;50019;-80
2023/04/05 19:33:11;;;;;;;;;6.75;6.75;;;;;;;;5068828;28;49623;-80
2023/04/05 19:35:36;;;;;;;;;10.50;10.00;;;;;;;;5068947;28;49705;-79
2023/04/05 19:38:03;;;;;;;;;11.75;10.25;;;;;;;;5069163;28;49752;-80
2023/04/05 19:40:28;;;;;;;;;9.00;7.75;;;;;;;;5066000;28;50497;-81
2023/04/05 19:42:55;;;;;;;;;8.00;8.00;;;;;;;;5065191;28;49784;-79
2023/04/05 19:45:29;;;;;;;;;9.25;9.00;;;;;;;;5068486;28;50045;-79
2023/04/05 19:47:56;;;;;;;;;9.00;9.00;;;;;;;;5068469;28;50104;-79
2023/04/05 19:50:30;;;;;;;;;7.75;5.75;;;;;;;;5068862;28;50811;-78
2023/04/05 19:52:55;;;;;;;;;8.25;6.75;;;;;;;;5062464;28;50151;-78
2023/04/05 19:55:29;;;;;;;;;12.50;8.50;;;;;;;;5062348;28;49921;-78
2023/04/05 19:57:55;;;;;;;;;10.50;10.00;;;;;;;;5062921;28;50121;-79
2023/04/05 20:00:32;;;;;;;;;10.00;9.00;;;;;;;;5065450;28;51459;-77
2023/04/05 20:02:58;;;;;;;;;9.50;9.00;;;;;;;;5062096;28;50066;-78
2023/04/05 20:05:41;;;;;;;;;9.25;7.50;;;;;;;;5062964;28;49812;-79
2023/04/05 20:08:07;;;;;;;;;9.25;8.00;;;;;;;;5059874;28;50262;-77
2023/04/05 20:10:39;;;;;;;;;18.75;13.75;;;;;;;;5064058;28;50119;-80
2023/04/05 20:13:05;;;;;;;;;13.00;11.00;;;;;;;;5060547;28;50023;-79
2023/04/05 20:15:35;;;;;;;;;12.25;11.75;;;;;;;;5060159;28;49922;-80
2023/04/05 20:18:01;;;;;;;;;9.00;9.00;;;;;;;;5061207;28;49787;-80
2023/04/05 20:20:26;;;;;;;;;11.50;10.25;;;;;;;;5059265;28;50681;-78
2023/04/05 20:22:51;;;;;;;;;14.75;13.00;;;;;;;;5043726;28;49785;-78
2023/04/05 20:25:36;;;;;;;;;19.75;15.50;;;;;;;;5059721;28;49791;-79
2023/04/05 20:28:06;;;;;;;;;16.50;12.00;;;;;;;;5064686;28;49796;-80
2023/04/05 20:30:31;;;;;;;;;16.50;12.75;;;;;;;;5064179;28;50234;-82
2023/04/05 20:32:56;;;;;;;;;15.50;11.00;;;;;;;;5063062;28;49799;-81
2023/04/05 20:35:31;;;;;;;;;14.00;13.50;;;;;;;;5062106;28;50229;-81
2023/04/05 20:37:56;;;;;;;;;17.50;12.75;;;;;;;;5065663;28;50116;-90
2023/04/05 20:40:22;;;;;;;;;22.00;17.50;;;;;;;;5064421;28;50479;-85
2023/04/05 20:42:47;;;;;;;;;12.25;9.00;;;;;;;;5065486;28;50138;-79
2023/04/05 20:45:12;;;;;;;;;26.00;18.25;;;;;;;;5063075;28;49736;-80
2023/04/05 20:47:38;;;;;;;;;20.50;17.00;;;;;;;;5062059;28;50137;-83
2023/04/05 20:50:03;;;;;;;;;17.50;15.25;;;;;;;;5045607;28;51294;-82
2023/04/05 20:52:28;;;;;;;;;21.00;20.75;;;;;;;;5071417;28;49695;-86
2023/04/05 20:54:53;;;;;;;;;18.25;16.75;;;;;;;;5070529;28;50604;-82
2023/04/05 20:57:19;;;;;;;;;20.00;17.75;;;;;;;;5070719;28;49589;-83
2023/04/05 20:59:44;;;;;;;;;17.50;16.25;;;;;;;;5068603;28;50005;-82
2023/04/05 21:02:10;;;;;;;;;21.25;18.25;;;;;;;;5070574;28;50111;-80
2023/04/05 21:04:35;;;;;;;;;27.00;21.75;;;;;;;;5070613;28;49819;-82
2023/04/05 21:07:01;;;;;;;;;22.00;19.50;;;;;;;;5071369;28;49937;-81
2023/04/05 21:09:26;;;;;;;;;21.25;19.00;;;;;;;;5064944;28;49966;-81
2023/04/05 21:11:51;;;;;;;;;26.75;23.50;;;;;;;;5071755;28;49660;-82
2023/04/05 21:14:17;;;;;;;;;21.50;18.25;;;;;;;;5066447;28;49743;-81
2023/04/05 21:16:42;;;;;;;;;18.50;18.50;;;;;;;;5070203;28;50017;-83
2023/04/05 21:19:07;;;;;;;;;21.25;18.00;;;;;;;;5068903;28;49918;-82
2023/04/05 21:21:32;;;;;;;;;21.75;19.00;;;;;;;;5065642;28;50015;-82
2023/04/05 21:23:57;;;;;;;;;23.50;18.75;;;;;;;;5068986;28;50106;-86
2023/04/05 21:26:22;;;;;;;;;22.75;19.25;;;;;;;;5071374;28;49747;-82
2023/04/05 21:28:48;;;;;;;;;24.50;20.25;;;;;;;;5073272;28;49811;-86
2023/04/05 21:31:13;;;;;;;;;22.25;21.75;;;;;;;;5074259;28;49763;-86
2023/04/05 21:33:38;;;;;;;;;24.00;22.50;;;;;;;;5070813;28;50011;-82
2023/04/05 21:36:04;;;;;;;;;27.25;24.75;;;;;;;;5056805;28;49784;-81
2023/04/05 21:38:29;;;;;;;;;29.75;24.50;;;;;;;;5070495;28;49906;-78
2023/04/05 21:40:54;;;;;;;;;22.25;19.50;;;;;;;;5076757;28;49720;-88
2023/04/05 21:43:20;;;;;;;;;29.75;22.25;;;;;;;;5072581;28;49868;-85
